Time;durP1;ratioP1;P1;durP2;ratioP2;P2;SDS_P1;SDS_P2;PMS_P1;PMS_P2;Temp;Humidity;BMP_temperature;BMP_pressure;BME280_temperature;BME280_humidity;BME280_pressure;Samples;Min_cycle;Max_cycle;Signal;HPM_P1;HPM_P2
2023/03/31 00:02:13;;;;;;;27.73;5.15;;;10.30;99.90;;;;;;5064141;28;20050;-77
2023/03/31 00:04:44;;;;;;;29.05;4.63;;;10.10;99.90;;;;;;5046824;28;20506;-77
2023/03/31 00:07:15;;;;;;;33.67;4.38;;;10.10;99.90;;;;;;5063923;28;20456;-77
2023/03/31 00:09:44;;;;;;;29.88;4.35;;;10.10;99.90;;;;;;5064919;28;20588;-77
2023/03/31 00:12:12;;;;;;;35.13;5.13;;;10.10;99.90;;;;;;5062171;28;20312;-77
2023/03/31 00:14:40;;;;;;;34.03;4.68;;;10.10;99.90;;;;;;5063964;28;20048;-76
2023/03/31 00:17:07;;;;;;;31.80;5.50;;;10.10;99.90;;;;;;5062824;28;20461;-77
2023/03/31 00:19:32;;;;;;;39.55;4.97;;;10.10;99.90;;;;;;5046932;28;20048;-77
2023/03/31 00:22:01;;;;;;;33.40;5.80;;;10.20;99.90;;;;;;5062987;28;20102;-77
2023/03/31 00:24:31;;;;;;;43.85;4.97;;;10.20;99.90;;;;;;5063244;28;20131;-77
2023/03/31 00:27:02;;;;;;;30.63;4.30;;;10.20;99.90;;;;;;5063825;28;20400;-77
2023/03/31 00:29:30;;;;;;;34.05;4.05;;;10.30;99.90;;;;;;5046121;28;20464;-77
2023/03/31 00:31:58;;;;;;;32.20;4.45;;;10.20;99.90;;;;;;5063873;28;20052;-77
2023/03/31 00:34:27;;;;;;;29.90;3.75;;;10.30;99.90;;;;;;5064076;28;20119;-77
2023/03/31 00:36:55;;;;;;;27.30;5.40;;;10.20;99.90;;;;;;5063735;28;20048;-78
2023/03/31 00:39:22;;;;;;;32.55;6.20;;;10.20;99.90;;;;;;5062899;28;20136;-78
2023/03/31 00:41:48;;;;;;;32.13;4.95;;;10.10;99.90;;;;;;5064578;28;20044;-78
2023/03/31 00:44:17;;;;;;;35.85;6.05;;;10.10;99.90;;;;;;5063663;28;20120;-78
2023/03/31 00:46:49;;;;;;;34.50;5.13;;;10.10;99.90;;;;;;5064409;28;20127;-78
2023/03/31 00:49:36;;;;;;;42.08;6.07;;;10.10;99.90;;;;;;5065169;28;20526;-78
2023/03/31 00:52:12;;;;;;;29.63;3.92;;;10.10;99.90;;;;;;5063857;28;20040;-76
2023/03/31 00:54:40;;;;;;;29.67;4.95;;;10.00;99.90;;;;;;5062637;28;20099;-77
2023/03/31 00:57:08;;;;;;;38.33;5.55;;;10.00;99.90;;;;;;5065141;28;20403;-77
2023/03/31 00:59:38;;;;;;;37.17;4.80;;;9.90;99.90;;;;;;5062864;28;20483;-77
2023/03/31 01:02:05;;;;;;;33.42;4.57;;;9.90;99.90;;;;;;5063985;28;20048;-77
2023/03/31 01:04:56;;;;;;;27.98;4.88;;;9.90;99.90;;;;;;5063845;28;20090;-77
2023/03/31 01:07:36;;;;;;;34.03;4.80;;;9.90;99.90;;;;;;5064369;28;20044;-77
2023/03/31 01:10:04;;;;;;;32.35;5.75;;;9.90;99.90;;;;;;5064803;28;20119;-77
2023/03/31 01:12:33;;;;;;;26.55;4.00;;;9.90;99.90;;;;;;5064167;28;20399;-77
2023/03/31 01:15:00;;;;;;;27.63;3.53;;;9.90;99.90;;;;;;5064843;28;20037;-77
2023/03/31 01:17:27;;;;;;;38.78;4.57;;;9.90;99.90;;;;;;5063879;28;20046;-77
2023/03/31 01:19:55;;;;;;;27.95;3.47;;;9.90;99.90;;;;;;5064425;28;20059;-77
2023/03/31 01:22:33;;;;;;;31.55;3.13;;;9.80;99.90;;;;;;5064373;28;20048;-77
2023/03/31 01:25:49;;;;;;;29.25;4.07;;;9.80;99.90;;;;;;5067530;28;20461;-78
2023/03/31 01:28:37;;;;;;;28.27;4.03;;;9.80;99.90;;;;;;5060200;28;20056;-75
2023/03/31 01:31:38;;;;;;;34.95;5.13;;;9.80;99.90;;;;;;5066294;28;20052;-76
2023/03/31 01:34:45;;;;;;;32.90;4.13;;;9.80;99.90;;;;;;5048850;28;20044;-78
2023/03/31 01:37:39;;;;;;;22.50;3.42;;;9.80;99.90;;;;;;5032000;28;20052;-78
2023/03/31 01:40:17;;;;;;;27.42;3.80;;;9.80;99.90;;;;;;5048742;28;20049;-78
2023/03/31 01:43:19;;;;;;;41.70;6.18;;;9.80;99.90;;;;;;5066437;28;20132;-76
2023/03/31 01:46:07;;;;;;;29.15;4.22;;;9.80;99.90;;;;;;5066063;28;20048;-78
2023/03/31 01:48:51;;;;;;;30.05;4.45;;;9.70;99.90;;;;;;5050398;28;20040;-78
2023/03/31 01:51:31;;;;;;;31.10;3.90;;;9.70;99.90;;;;;;5065905;28;20473;-78
2023/03/31 01:54:27;;;;;;;21.58;4.22;;;9.70;99.90;;;;;;5067266;28;20067;-78
2023/03/31 01:57:17;;;;;;;29.40;5.20;;;9.70;99.90;;;;;;5067011;28;20048;-78
2023/03/31 02:00:02;;;;;;;27.95;4.07;;;9.70;99.90;;;;;;5067069;28;20049;-78
2023/03/31 02:02:35;;;;;;;29.98;4.40;;;9.70;99.90;;;;;;5066286;28;20050;-78
2023/03/31 02:05:10;;;;;;;41.85;4.55;;;9.60;99.90;;;;;;5066036;28;20044;-78
2023/03/31 02:07:46;;;;;;;34.88;4.28;;;9.60;99.90;;;;;;5066995;28;20384;-78
2023/03/31 02:10:13;;;;;;;29.88;5.65;;;9.60;99.90;;;;;;5067709;28;20076;-78
2023/03/31 02:12:42;;;;;;;30.98;4.05;;;9.60;99.90;;;;;;5066248;28;20127;-78
2023/03/31 02:15:13;;;;;;;30.27;4.65;;;9.60;99.90;;;;;;5067402;28;20089;-78
2023/03/31 02:17:44;;;;;;;25.10;3.78;;;9.60;99.90;;;;;;5066619;28;20048;-78
2023/03/31 02:20:14;;;;;;;28.05;4.22;;;9.70;99.90;;;;;;5049006;28;20048;-76
2023/03/31 02:22:44;;;;;;;24.23;4.50;;;9.60;99.90;;;;;;5067262;28;20044;-76
2023/03/31 02:25:13;;;;;;;33.17;5.22;;;9.60;99.90;;;;;;5048682;28;20087;-76
2023/03/31 02:27:41;;;;;;;22.45;3.47;;;9.60;99.90;;;;;;5065908;28;20041;-76
2023/03/31 02:30:09;;;;;;;34.95;3.70;;;9.60;99.90;;;;;;5064734;28;20058;-76
2023/03/31 02:32:43;;;;;;;26.05;5.55;;;9.60;99.90;;;;;;5065499;28;20041;-76
2023/03/31 02:35:18;;;;;;;24.50;3.75;;;9.60;99.90;;;;;;5064333;28;20059;-76
2023/03/31 02:37:45;;;;;;;21.25;4.05;;;9.70;99.90;;;;;;5064745;28;20336;-76
2023/03/31 02:40:20;;;;;;;23.67;4.25;;;9.60;99.90;;;;;;5067100;28;20044;-76
2023/03/31 02:42:47;;;;;;;28.38;3.40;;;9.60;99.90;;;;;;5065647;28;20121;-76
2023/03/31 02:45:37;;;;;;;19.55;3.67;;;9.60;99.90;;;;;;5048542;28;20492;-78
2023/03/31 02:48:05;;;;;;;29.13;2.88;;;9.60;99.90;;;;;;5064761;28;20048;-77
2023/03/31 02:50:42;;;;;;;28.52;3.45;;;9.60;99.90;;;;;;5064638;28;20044;-77
2023/03/31 02:53:14;;;;;;;19.55;3.05;;;9.60;99.90;;;;;;5065321;28;20061;-77
2023/03/31 02:56:02;;;;;;;27.83;2.70;;;9.80;99.90;;;;;;5063985;28;20041;-77
2023/03/31 02:59:30;;;;;;;30.73;4.00;;;9.70;99.90;;;;;;5066368;28;20049;-77
2023/03/31 03:02:25;;;;;;;23.52;3.25;;;9.70;99.90;;;;;;5042879;28;20518;-78
2023/03/31 03:05:07;;;;;;;28.33;2.97;;;9.70;99.90;;;;;;5064435;28;20056;-78
2023/03/31 03:08:02;;;;;;;23.58;2.83;;;9.80;99.90;;;;;;5064072;28;20133;-78
2023/03/31 03:10:49;;;;;;;17.98;3.22;;;9.80;99.90;;;;;;5064926;28;20494;-77
2023/03/31 03:13:19;;;;;;;28.13;3.65;;;9.80;99.90;;;;;;5065248;28;20431;-77
2023/03/31 03:15:52;;;;;;;29.67;4.18;;;9.80;99.90;;;;;;5064327;28;20044;-78
2023/03/31 03:18:17;;;;;;;29.25;3.60;;;9.80;99.90;;;;;;5064475;28;20055;-77
2023/03/31 03:20:48;;;;;;;33.28;3.78;;;9.80;99.90;;;;;;5065216;28;20044;-77
2023/03/31 03:23:17;;;;;;;22.00;2.90;;;9.80;99.90;;;;;;5065127;28;20052;-78
2023/03/31 03:25:43;;;;;;;19.85;3.15;;;9.80;99.90;;;;;;5064970;28;20037;-78
2023/03/31 03:28:09;;;;;;;31.10;3.60;;;9.80;99.90;;;;;;5066194;28;20040;-78
2023/03/31 03:30:35;;;;;;;26.85;3.47;;;9.70;99.90;;;;;;5064886;28;20047;-77
2023/03/31 03:33:02;;;;;;;24.10;3.03;;;9.70;99.90;;;;;;5063667;28;20048;-77
2023/03/31 03:35:28;;;;;;;18.40;2.67;;;9.70;99.90;;;;;;5064473;28;20044;-77
2023/03/31 03:37:53;;;;;;;24.35;3.58;;;9.70;99.90;;;;;;5046769;28;20178;-78
2023/03/31 03:40:19;;;;;;;25.17;3.42;;;9.70;99.90;;;;;;5047787;28;20053;-78
2023/03/31 03:42:45;;;;;;;24.60;3.10;;;9.70;99.90;;;;;;5065177;28;20052;-78
2023/03/31 03:45:10;;;;;;;25.35;3.63;;;9.70;99.90;;;;;;5046626;28;20136;-78
2023/03/31 03:47:36;;;;;;;14.07;3.85;;;9.70;99.90;;;;;;5063274;28;20040;-77
2023/03/31 03:50:03;;;;;;;19.63;2.97;;;9.70;99.90;;;;;;5065598;28;20055;-77
2023/03/31 03:52:29;;;;;;;15.95;3.47;;;9.70;99.90;;;;;;5063339;28;20044;-77
2023/03/31 03:54:54;;;;;;;10.10;2.65;;;9.70;99.90;;;;;;5063833;28;20047;-77
2023/03/31 03:57:20;;;;;;;20.83;3.17;;;9.70;99.90;;;;;;5064155;28;20082;-77
2023/03/31 03:59:46;;;;;;;21.17;3.53;;;9.70;99.90;;;;;;5064362;28;20427;-77
2023/03/31 04:02:12;;;;;;;23.48;3.40;;;10.70;99.90;;;;;;5047248;28;20044;-77
2023/03/31 04:04:38;;;;;;;13.48;2.60;;;10.20;99.90;;;;;;5063112;28;20047;-77
2023/03/31 04:07:04;;;;;;;16.23;3.17;;;9.80;99.90;;;;;;5065000;28;20119;-77
2023/03/31 04:09:30;;;;;;;17.98;2.95;;;9.80;99.90;;;;;;5063441;28;20056;-77
2023/03/31 04:11:56;;;;;;;22.10;3.45;;;10.00;99.90;;;;;;5064403;28;20044;-77
2023/03/31 04:14:21;;;;;;;25.58;3.88;;;9.80;99.90;;;;;;5065858;28;20149;-78
2023/03/31 04:16:47;;;;;;;23.10;3.08;;;9.90;99.90;;;;;;5064921;28;20044;-78
2023/03/31 04:19:16;;;;;;;12.40;2.58;;;9.80;99.90;;;;;;5064189;28;20053;-77
2023/03/31 04:21:43;;;;;;;12.65;2.53;;;9.90;99.90;;;;;;5063198;28;20048;-77
2023/03/31 04:24:14;;;;;;;11.00;2.58;;;9.90;99.90;;;;;;5063085;28;20049;-77
2023/03/31 04:26:44;;;;;;;12.02;3.70;;;9.90;99.90;;;;;;5063709;28;20052;-77
2023/03/31 04:29:14;;;;;;;14.07;2.90;;;9.90;99.90;;;;;;5064226;28;20056;-78
2023/03/31 04:31:44;;;;;;;12.27;2.90;;;10.00;99.90;;;;;;5063812;28;20496;-79
2023/03/31 04:34:14;;;;;;;16.98;3.38;;;10.00;99.90;;;;;;5062228;28;20047;-78
2023/03/31 04:36:45;;;;;;;15.05;4.72;;;9.90;99.90;;;;;;5063289;28;20052;-78
2023/03/31 04:39:16;;;;;;;12.77;4.32;;;10.00;99.90;;;;;;5062746;28;20047;-79
2023/03/31 04:41:42;;;;;;;16.58;3.67;;;10.00;99.90;;;;;;5064065;28;20041;-79
2023/03/31 04:44:08;;;;;;;15.30;3.80;;;10.00;99.90;;;;;;5046860;28;20052;-79
2023/03/31 04:46:34;;;;;;;15.35;3.78;;;10.00;99.90;;;;;;5062517;28;20100;-78
2023/03/31 04:49:01;;;;;;;9.48;3.97;;;10.00;99.90;;;;;;5065282;28;20041;-79
2023/03/31 04:51:28;;;;;;;13.85;5.15;;;10.00;99.90;;;;;;5063994;28;20091;-81
2023/03/31 04:53:54;;;;;;;13.85;3.78;;;10.00;99.90;;;;;;5062604;28;20141;-80
2023/03/31 04:56:19;;;;;;;17.88;4.57;;;10.10;99.90;;;;;;5062742;28;20127;-80
2023/03/31 04:58:45;;;;;;;10.02;3.83;;;10.00;99.90;;;;;;5066727;28;20048;-80
2023/03/31 05:01:17;;;;;;;16.00;4.85;;;10.00;99.90;;;;;;5068477;28;20052;-82
2023/03/31 05:03:44;;;;;;;16.45;5.10;;;10.00;99.90;;;;;;5050082;28;20045;-82
2023/03/31 05:06:10;;;;;;;18.52;4.85;;;10.00;99.90;;;;;;5050020;28;20045;-82
2023/03/31 05:08:36;;;;;;;14.70;4.40;;;10.00;99.90;;;;;;5065858;28;20036;-79
2023/03/31 05:11:02;;;;;;;18.20;5.97;;;10.00;99.90;;;;;;5066250;28;20842;-82
2023/03/31 05:13:28;;;;;;;18.23;5.15;;;10.00;99.90;;;;;;5049027;28;20535;-82
2023/03/31 05:15:54;;;;;;;16.48;4.82;;;10.00;99.90;;;;;;5065339;28;20123;-81
2023/03/31 05:18:20;;;;;;;18.88;5.78;;;10.40;99.90;;;;;;5067766;28;20108;-81
2023/03/31 05:20:46;;;;;;;11.57;4.63;;;10.80;99.90;;;;;;5066544;28;20033;-79
2023/03/31 05:23:12;;;;;;;16.05;5.32;;;10.90;99.90;;;;;;5049030;28;20144;-80
2023/03/31 05:25:38;;;;;;;16.50;5.15;;;10.00;99.90;;;;;;5066563;28;20052;-80
2023/03/31 05:28:04;;;;;;;14.45;4.80;;;9.30;99.90;;;;;;5066106;28;20052;-80
2023/03/31 05:30:30;;;;;;;17.95;5.10;;;11.30;99.90;;;;;;5066340;28;20086;-81
2023/03/31 05:32:56;;;;;;;17.55;6.10;;;10.00;99.90;;;;;;5065204;28;20083;-84
2023/03/31 05:35:22;;;;;;;11.60;4.93;;;10.00;99.90;;;;;;5065523;28;20071;-81
2023/03/31 05:37:48;;;;;;;12.18;4.82;;;10.00;99.90;;;;;;5065022;28;20058;-80
2023/03/31 05:40:14;;;;;;;14.40;4.63;;;9.50;99.90;;;;;;5068168;28;20041;-82
2023/03/31 05:42:41;;;;;;;16.33;5.50;;;10.00;99.90;;;;;;5048753;28;20574;-82
2023/03/31 05:45:08;;;;;;;15.18;5.32;;;10.00;99.90;;;;;;5066162;28;20123;-84
2023/03/31 05:47:33;;;;;;;17.05;4.55;;;10.00;99.90;;;;;;5065784;28;20052;-83
2023/03/31 05:49:59;;;;;;;14.52;4.32;;;10.20;99.90;;;;;;5065923;28;20048;-83
2023/03/31 05:52:25;;;;;;;17.85;3.85;;;10.10;99.90;;;;;;5065591;28;20503;-82
2023/03/31 05:54:51;;;;;;;16.83;4.72;;;9.60;99.90;;;;;;5048915;28;20092;-81
2023/03/31 05:57:17;;;;;;;17.50;4.70;;;10.10;99.90;;;;;;5066176;28;20553;-82
2023/03/31 05:59:42;;;;;;;19.40;3.90;;;10.10;99.90;;;;;;5065020;28;20048;-81
2023/03/31 06:02:12;;;;;;;15.10;3.85;;;10.10;99.90;;;;;;5049256;28;20044;-82
2023/03/31 06:04:38;;;;;;;15.35;3.58;;;10.80;99.90;;;;;;5066477;28;20119;-81
2023/03/31 06:07:04;;;;;;;15.60;3.85;;;10.70;99.90;;;;;;5066950;28;20115;-81
2023/03/31 06:09:30;;;;;;;15.13;4.20;;;10.10;99.90;;;;;;5064541;28;20525;-81
2023/03/31 06:11:56;;;;;;;12.27;3.58;;;10.30;99.90;;;;;;5066472;28;20044;-81
2023/03/31 06:14:22;;;;;;;14.18;3.72;;;10.20;99.90;;;;;;5067221;28;20037;-81
2023/03/31 06:16:48;;;;;;;9.73;3.40;;;10.10;99.90;;;;;;5065900;28;20040;-81
2023/03/31 06:19:14;;;;;;;9.25;3.17;;;10.60;99.90;;;;;;5049300;28;20412;-81
2023/03/31 06:21:40;;;;;;;12.63;3.15;;;10.20;99.90;;;;;;5064546;28;20084;-81
2023/03/31 06:24:07;;;;;;;9.77;3.03;;;10.20;99.90;;;;;;5065236;28;20121;-81
2023/03/31 06:26:33;;;;;;;13.55;3.33;;;10.20;99.90;;;;;;5066617;28;20090;-81
2023/03/31 06:28:59;;;;;;;10.30;3.40;;;10.20;99.90;;;;;;5048173;28;20119;-81
2023/03/31 06:31:25;;;;;;;11.13;3.15;;;10.50;99.90;;;;;;5067201;28;20115;-81
2023/03/31 06:33:51;;;;;;;14.15;2.53;;;10.20;99.90;;;;;;5065897;28;20427;-81
2023/03/31 06:36:20;;;;;;;8.50;2.97;;;10.20;99.90;;;;;;5065525;28;20551;-81
2023/03/31 06:38:46;;;;;;;12.05;3.55;;;11.40;99.90;;;;;;5065585;28;20140;-81
2023/03/31 06:41:13;;;;;;;13.60;4.55;;;10.20;99.90;;;;;;5064682;28;20125;-81
2023/03/31 06:43:39;;;;;;;11.57;3.25;;;10.20;99.90;;;;;;5064155;28;20047;-82
2023/03/31 06:46:05;;;;;;;9.60;4.20;;;10.20;99.90;;;;;;5065545;28;20045;-84
2023/03/31 06:48:31;;;;;;;7.28;3.08;;;10.20;99.90;;;;;;5065626;28;20111;-82
2023/03/31 06:51:02;;;;;;;12.20;3.20;;;10.20;99.90;;;;;;5065246;28;20534;-82
2023/03/31 06:53:28;;;;;;;10.10;3.20;;;10.20;99.90;;;;;;5066509;28;20056;-81
2023/03/31 06:55:54;;;;;;;8.63;3.00;;;10.20;99.90;;;;;;5064320;28;20049;-81
2023/03/31 06:58:21;;;;;;;15.82;2.58;;;10.20;99.90;;;;;;5065413;28;20458;-81
2023/03/31 07:00:47;;;;;;;7.07;2.97;;;10.20;99.90;;;;;;5065538;28;20071;-81
2023/03/31 07:03:13;;;;;;;6.70;3.78;;;10.30;99.90;;;;;;5065170;28;20044;-81
2023/03/31 07:05:39;;;;;;;11.68;3.13;;;10.20;99.90;;;;;;5065051;28;20118;-82
2023/03/31 07:08:05;;;;;;;10.57;3.30;;;10.80;99.90;;;;;;5046932;28;20445;-82
2023/03/31 07:10:31;;;;;;;7.88;2.60;;;10.30;99.90;;;;;;5065967;28;20044;-81
2023/03/31 07:12:57;;;;;;;9.63;2.63;;;10.30;99.90;;;;;;5064960;28;20173;-81
2023/03/31 07:15:24;;;;;;;10.57;2.92;;;10.30;99.90;;;;;;5063792;28;20040;-81
2023/03/31 07:17:52;;;;;;;6.38;2.05;;;10.30;99.90;;;;;;5047433;28;20411;-81
2023/03/31 07:20:18;;;;;;;9.52;2.72;;;10.30;99.90;;;;;;5063646;28;20052;-81
2023/03/31 07:22:46;;;;;;;9.23;2.65;;;10.30;99.90;;;;;;5064541;28;20045;-81
2023/03/31 07:25:14;;;;;;;8.15;1.98;;;10.20;99.90;;;;;;5065028;28;20090;-84
2023/03/31 07:27:40;;;;;;;9.70;2.90;;;10.30;99.90;;;;;;5066134;28;20076;-81
2023/03/31 07:30:09;;;;;;;12.63;2.35;;;10.40;99.90;;;;;;5064890;28;20051;-81
2023/03/31 07:32:39;;;;;;;9.05;2.42;;;10.30;99.90;;;;;;5063843;28;20104;-82
2023/03/31 07:35:06;;;;;;;7.60;2.05;;;10.30;99.90;;;;;;5065267;28;20040;-81
2023/03/31 07:37:36;;;;;;;11.77;2.97;;;10.30;99.90;;;;;;5047484;28;20127;-81
2023/03/31 07:40:04;;;;;;;6.43;2.85;;;11.00;99.90;;;;;;5064168;28;20072;-82
2023/03/31 07:42:30;;;;;;;7.57;2.45;;;10.30;99.90;;;;;;5063457;28;20557;-81
2023/03/31 07:44:56;;;;;;;5.50;2.20;;;10.40;99.90;;;;;;5065843;28;20079;-81
2023/03/31 07:47:23;;;;;;;8.07;2.25;;;10.50;99.90;;;;;;5064228;28;20090;-81
2023/03/31 07:49:49;;;;;;;10.73;2.55;;;10.40;99.90;;;;;;5068643;28;20515;-82
2023/03/31 07:52:15;;;;;;;6.88;2.58;;;10.40;99.90;;;;;;5065489;28;20402;-81
2023/03/31 07:54:41;;;;;;;8.45;2.65;;;10.40;99.90;;;;;;5067759;28;20051;-82
2023/03/31 07:57:07;;;;;;;4.93;2.47;;;10.50;99.90;;;;;;5065989;28;20041;-82
2023/03/31 07:59:33;;;;;;;9.75;2.50;;;11.00;99.90;;;;;;5066181;28;20064;-82
2023/03/31 08:01:59;;;;;;;10.02;2.58;;;10.50;99.90;;;;;;5065512;28;20048;-81
2023/03/31 08:04:25;;;;;;;9.30;2.55;;;10.90;99.90;;;;;;5065051;28;20495;-81
2023/03/31 08:06:51;;;;;;;5.53;2.10;;;10.50;99.90;;;;;;5063863;28;20047;-82
2023/03/31 08:09:17;;;;;;;6.72;2.60;;;10.90;99.90;;;;;;5065286;28;20141;-81
2023/03/31 08:11:43;;;;;;;8.75;2.58;;;11.00;99.90;;;;;;5063304;28;20044;-82
2023/03/31 08:14:09;;;;;;;4.55;2.42;;;10.50;99.90;;;;;;5064150;28;20048;-81
2023/03/31 08:16:35;;;;;;;8.52;2.70;;;10.80;99.90;;;;;;5046319;28;20070;-81
2023/03/31 08:19:01;;;;;;;10.77;2.65;;;10.50;99.90;;;;;;5064437;28;20137;-81
2023/03/31 08:21:29;;;;;;;9.32;2.03;;;10.50;99.90;;;;;;5064186;28;20040;-81
2023/03/31 08:23:55;;;;;;;7.63;1.90;;;10.70;99.90;;;;;;5065324;28;20054;-81
2023/03/31 08:26:23;;;;;;;9.23;2.13;;;10.40;99.90;;;;;;5062655;28;20053;-81
2023/03/31 08:28:49;;;;;;;6.80;2.70;;;10.40;99.90;;;;;;5064446;28;20068;-81
2023/03/31 08:31:17;;;;;;;13.15;2.78;;;11.80;99.90;;;;;;5064155;28;20391;-80
2023/03/31 08:33:43;;;;;;;5.97;1.73;;;10.50;99.90;;;;;;5067738;28;20124;-82
2023/03/31 08:36:10;;;;;;;5.03;1.88;;;10.50;99.90;;;;;;5068856;28;20157;-80
2023/03/31 08:38:37;;;;;;;8.10;2.50;;;10.50;99.90;;;;;;5066535;28;20045;-81
2023/03/31 08:41:06;;;;;;;8.98;2.28;;;10.50;99.90;;;;;;5068818;28;20048;-82
2023/03/31 08:43:43;;;;;;;4.32;2.05;;;10.50;99.90;;;;;;5068452;28;20044;-82
2023/03/31 08:46:16;;;;;;;5.05;2.60;;;10.50;99.90;;;;;;5068532;28;20056;-81
2023/03/31 08:48:47;;;;;;;8.68;2.20;;;10.60;99.90;;;;;;5069914;28;20060;-81
2023/03/31 08:51:17;;;;;;;6.80;2.05;;;11.20;99.90;;;;;;5067405;28;20399;-82
2023/03/31 08:53:50;;;;;;;5.55;2.00;;;10.80;99.90;;;;;;5067812;28;20412;-81
2023/03/31 08:56:19;;;;;;;10.48;2.10;;;11.40;99.90;;;;;;5066952;28;20055;-81
2023/03/31 08:58:47;;;;;;;7.93;2.20;;;10.50;99.90;;;;;;5049913;28;20124;-81
2023/03/31 09:01:22;;;;;;;4.57;1.70;;;10.50;99.90;;;;;;5066900;28;20044;-81
2023/03/31 09:04:37;;;;;;;6.22;1.60;;;10.50;99.90;;;;;;5066913;28;20495;-81
2023/03/31 09:07:28;;;;;;;7.03;1.63;;;10.60;99.90;;;;;;5066082;28;20121;-81
2023/03/31 09:10:12;;;;;;;5.88;1.92;;;10.60;99.90;;;;;;5066965;28;20095;-81
2023/03/31 09:13:14;;;;;;;8.07;1.92;;;10.60;99.90;;;;;;5066652;28;20377;-81
2023/03/31 09:16:01;;;;;;;7.70;2.00;;;10.70;99.90;;;;;;5067025;28;20040;-81
2023/03/31 09:18:36;;;;;;;7.80;1.60;;;10.70;99.90;;;;;;5066683;28;20127;-82
2023/03/31 09:21:12;;;;;;;6.68;1.90;;;10.70;99.90;;;;;;5064842;28;20037;-82
2023/03/31 09:23:50;;;;;;;10.65;1.75;;;10.80;99.90;;;;;;5066346;28;20044;-82
2023/03/31 09:26:51;;;;;;;11.00;2.35;;;10.80;99.90;;;;;;5064873;28;20406;-81
2023/03/31 09:29:41;;;;;;;7.20;2.47;;;10.80;99.90;;;;;;5060974;28;20064;-82
2023/03/31 09:32:21;;;;;;;9.70;2.70;;;10.80;99.90;;;;;;5067158;28;20048;-82
2023/03/31 09:34:52;;;;;;;10.50;2.35;;;10.90;99.90;;;;;;5066222;28;20040;-82
2023/03/31 09:37:18;;;;;;;7.68;1.85;;;10.90;99.90;;;;;;5065522;28;20241;-82
2023/03/31 09:39:44;;;;;;;8.90;1.80;;;10.90;99.90;;;;;;5066417;28;20506;-82
2023/03/31 09:42:14;;;;;;;9.88;2.15;;;10.90;99.90;;;;;;5066238;28;20045;-82
2023/03/31 09:44:48;;;;;;;9.48;2.25;;;11.00;99.90;;;;;;5065270;28;20123;-82
2023/03/31 09:47:26;;;;;;;5.95;1.85;;;11.00;99.90;;;;;;5064754;28;20037;-81
2023/03/31 09:49:51;;;;;;;7.47;1.92;;;11.00;99.90;;;;;;5066695;28;20048;-81
2023/03/31 09:52:30;;;;;;;7.45;2.63;;;11.10;99.90;;;;;;5064106;28;20501;-82
2023/03/31 09:55:00;;;;;;;6.03;2.10;;;11.20;99.90;;;;;;5064302;28;20060;-83
2023/03/31 09:57:30;;;;;;;7.60;2.00;;;11.20;99.90;;;;;;5065018;28;20123;-82
2023/03/31 10:00:15;;;;;;;8.50;2.58;;;11.20;99.90;;;;;;5047857;28;20403;-82
2023/03/31 10:02:54;;;;;;;6.75;2.08;;;11.30;99.90;;;;;;5065150;28;20052;-82
2023/03/31 10:05:31;;;;;;;11.15;2.50;;;11.40;99.90;;;;;;5064453;28;20067;-81
2023/03/31 10:08:21;;;;;;;10.32;2.47;;;11.40;99.90;;;;;;5064167;28;20051;-81
2023/03/31 10:10:56;;;;;;;11.07;2.53;;;12.70;99.90;;;;;;5048802;28;20119;-81
2023/03/31 10:13:25;;;;;;;7.43;2.33;;;11.70;99.90;;;;;;5063674;28;20422;-79
2023/03/31 10:15:53;;;;;;;4.13;2.03;;;11.80;99.90;;;;;;5066086;28;20406;-79
2023/03/31 10:18:22;;;;;;;9.60;2.72;;;11.90;99.90;;;;;;5063876;28;20048;-79
2023/03/31 10:20:50;;;;;;;12.38;2.45;;;12.00;99.90;;;;;;5065367;28;20041;-79
2023/03/31 10:23:22;;;;;;;6.95;2.28;;;12.10;99.90;;;;;;5064606;28;20117;-79
2023/03/31 10:25:48;;;;;;;5.43;2.22;;;12.10;99.90;;;;;;5063636;28;20599;-79
2023/03/31 10:28:19;;;;;;;9.32;2.15;;;12.20;99.90;;;;;;5047957;28;20045;-79
2023/03/31 10:30:52;;;;;;;6.45;2.05;;;12.20;99.90;;;;;;5063704;28;20399;-79
2023/03/31 10:33:23;;;;;;;5.60;1.58;;;12.30;99.90;;;;;;5063736;28;20262;-79
2023/03/31 10:35:57;;;;;;;5.72;1.83;;;12.30;99.90;;;;;;5064345;28;20043;-79
2023/03/31 10:38:41;;;;;;;7.35;1.90;;;12.40;99.90;;;;;;5063206;28;20178;-79
2023/03/31 10:41:08;;;;;;;9.57;2.60;;;12.40;99.90;;;;;;5066183;28;20048;-79
2023/03/31 10:43:42;;;;;;;4.10;0.85;;;12.30;99.90;;;;;;5064691;28;20048;-79
2023/03/31 10:46:08;;;;;;;5.43;1.05;;;12.20;99.90;;;;;;5065071;28;20048;-79
2023/03/31 10:48:40;;;;;;;3.90;1.27;;;12.10;99.90;;;;;;5047618;28;20589;-81
2023/03/31 10:51:41;;;;;;;6.18;1.30;;;12.80;99.90;;;;;;5063249;28;20044;-80
2023/03/31 10:54:08;;;;;;;4.20;1.42;;;12.00;99.90;;;;;;5064533;28;20056;-79
2023/03/31 10:56:45;;;;;;;6.40;1.15;;;12.00;99.90;;;;;;5064184;28;20087;-79
2023/03/31 10:59:11;;;;;;;4.20;1.45;;;12.10;99.90;;;;;;5063628;28;20040;-79
2023/03/31 11:01:59;;;;;;;3.88;1.15;;;11.50;99.90;;;;;;5065057;28;20453;-79
2023/03/31 11:04:37;;;;;;;7.85;1.85;;;12.20;99.90;;;;;;5063820;28;20040;-79
2023/03/31 11:07:20;;;;;;;7.13;1.85;;;12.30;99.90;;;;;;5065154;28;20056;-79
2023/03/31 11:10:01;;;;;;;7.63;1.73;;;12.30;99.90;;;;;;5064575;28;20036;-79
2023/03/31 11:12:37;;;;;;;7.35;1.52;;;12.40;99.90;;;;;;5064232;28;20088;-79
2023/03/31 11:15:23;;;;;;;4.90;1.52;;;12.40;99.90;;;;;;5065355;28;20051;-80
2023/03/31 11:18:01;;;;;;;6.13;1.80;;;12.50;99.90;;;;;;5063978;28;20044;-79
2023/03/31 11:20:46;;;;;;;3.72;1.40;;;12.60;99.90;;;;;;5046111;28;20079;-79
2023/03/31 11:23:31;;;;;;;3.08;1.20;;;12.70;99.90;;;;;;5065210;28;20079;-80
2023/03/31 11:26:20;;;;;;;6.43;2.25;;;12.80;99.90;;;;;;5063887;28;20459;-79
2023/03/31 11:29:05;;;;;;;7.93;1.63;;;11.70;99.90;;;;;;5062843;28;20055;-79
2023/03/31 11:32:11;;;;;;;7.53;1.60;;;12.50;99.90;;;;;;5064299;28;20612;-79
2023/03/31 11:34:58;;;;;;;6.97;1.33;;;13.20;99.90;;;;;;5060890;28;20068;-79
2023/03/31 11:37:30;;;;;;;5.05;1.40;;;13.30;99.90;;;;;;5064352;28;20398;-78
2023/03/31 11:40:14;;;;;;;5.65;1.40;;;13.40;99.90;;;;;;5064655;28;20161;-78
2023/03/31 11:42:40;;;;;;;8.57;1.63;;;13.50;99.90;;;;;;5063978;28;20052;-78
2023/03/31 11:45:17;;;;;;;7.10;1.27;;;13.60;99.90;;;;;;5064855;28;20036;-78
2023/03/31 11:47:45;;;;;;;7.22;1.23;;;13.70;99.90;;;;;;5063544;28;20127;-78
2023/03/31 11:50:18;;;;;;;6.88;1.67;;;13.90;99.90;;;;;;5064335;28;20041;-79
2023/03/31 11:53:01;;;;;;;5.35;1.58;;;14.00;99.90;;;;;;5063388;28;20083;-78
2023/03/31 11:55:31;;;;;;;7.00;1.15;;;14.10;99.90;;;;;;5061902;28;20495;-79
2023/03/31 11:58:11;;;;;;;4.60;1.25;;;14.20;99.90;;;;;;5064700;28;20048;-78
2023/03/31 12:00:50;;;;;;;7.57;2.53;;;14.20;99.90;;;;;;5063166;28;20048;-78
2023/03/31 12:03:27;;;;;;;5.93;1.60;;;14.20;99.90;;;;;;5063659;28;20055;-79
2023/03/31 12:06:01;;;;;;;6.53;1.40;;;14.20;99.90;;;;;;5063699;28;20503;-78
2023/03/31 12:08:50;;;;;;;5.80;1.23;;;14.20;99.90;;;;;;5062707;28;20051;-78
2023/03/31 12:11:34;;;;;;;7.50;1.25;;;14.10;99.90;;;;;;5062979;28;20399;-78
2023/03/31 12:14:25;;;;;;;6.13;1.10;;;14.00;99.90;;;;;;5063881;28;20041;-78
2023/03/31 12:17:13;;;;;;;7.28;1.67;;;13.80;99.90;;;;;;5062198;28;20530;-79
2023/03/31 12:20:05;;;;;;;6.40;1.73;;;13.60;99.90;;;;;;5064469;28;20048;-79
2023/03/31 12:22:42;;;;;;;5.57;1.40;;;13.40;99.90;;;;;;5063441;28;20088;-79
2023/03/31 12:25:13;;;;;;;2.75;0.98;;;13.20;99.90;;;;;;5062970;28;20542;-80
2023/03/31 12:27:41;;;;;;;6.72;1.30;;;13.10;99.90;;;;;;5064339;28;20479;-79
2023/03/31 12:30:36;;;;;;;9.85;1.98;;;13.10;99.90;;;;;;5063018;28;20080;-79
2023/03/31 12:33:11;;;;;;;8.63;1.38;;;13.00;99.90;;;;;;5061289;28;20061;-79
2023/03/31 12:36:03;;;;;;;9.48;1.70;;;12.90;99.90;;;;;;5063938;28;20087;-79
2023/03/31 12:38:54;;;;;;;5.93;1.30;;;12.80;99.90;;;;;;5061724;28;20044;-80
2023/03/31 12:41:32;;;;;;;7.30;1.67;;;12.70;99.90;;;;;;5062871;28;20439;-79
2023/03/31 12:44:15;;;;;;;6.60;1.70;;;12.60;99.90;;;;;;5063435;28;20067;-79
2023/03/31 12:47:13;;;;;;;11.52;3.08;;;12.60;99.90;;;;;;5045081;28;20044;-79
2023/03/31 12:49:58;;;;;;;6.20;1.83;;;12.50;99.90;;;;;;5050753;28;20064;-80
2023/03/31 12:52:33;;;;;;;5.97;1.55;;;12.60;99.90;;;;;;5062052;28;20106;-82
2023/03/31 12:55:27;;;;;;;9.52;2.67;;;12.70;99.90;;;;;;5062202;28;20113;-83
2023/03/31 12:58:28;;;;;;;6.70;1.77;;;12.80;99.90;;;;;;5062642;28;20046;-81
2023/03/31 13:01:06;;;;;;;9.13;1.60;;;13.10;99.90;;;;;;5061583;28;20090;-82
2023/03/31 13:03:49;;;;;;;8.75;1.77;;;13.40;99.90;;;;;;5061470;28;20131;-81
2023/03/31 13:06:27;;;;;;;8.13;1.70;;;13.60;99.90;;;;;;5062828;28;20047;-81
2023/03/31 13:09:04;;;;;;;6.55;1.70;;;13.80;99.90;;;;;;5060712;28;20565;-82
2023/03/31 13:11:36;;;;;;;5.68;1.50;;;13.60;99.90;;;;;;5062160;28;20049;-83
2023/03/31 13:14:22;;;;;;;12.27;2.45;;;13.90;99.90;;;;;;5061426;28;20500;-82